sensor_id;sensor_type;location;lat;lon;timestamp;pressure;altitude;pressure_sealevel;temperature
19948;BMP180;10135;50.702;7.276;2022-09-17T05:31:42;99194.00;;;15.60
19948;BMP180;10135;50.702;7.276;2022-09-17T05:33:43;99194.00;;;15.60
19948;BMP180;10135;50.702;7.276;2022-09-17T05:35:43;99196.00;;;15.60
19948;BMP180;10135;50.702;7.276;2022-09-17T05:37:44;99204.00;;;15.60
19948;BMP180;10135;50.702;7.276;2022-09-17T05:39:45;99194.00;;;15.60
19948;BMP180;10135;50.702;7.276;2022-09-17T05:41:45;99204.00;;;15.60
19948;BMP180;10135;50.702;7.276;2022-09-17T05:43:46;99201.00;;;15.60
19948;BMP180;10135;50.702;7.276;2022-09-17T05:45:47;99204.00;;;15.60
19948;BMP180;10135;50.702;7.276;2022-09-17T05:47:47;99215.00;;;15.60
19948;BMP180;10135;50.702;7.276;2022-09-17T05:49:48;99219.00;;;15.60
19948;BMP180;10135;50.702;7.276;2022-09-17T05:51:50;99220.00;;;15.60
19948;BMP180;10135;50.702;7.276;2022-09-17T05:53:53;99221.00;;;15.60
19948;BMP180;10135;50.702;7.276;2022-09-17T05:55:57;99220.00;;;15.60
19948;BMP180;10135;50.702;7.276;2022-09-17T05:57:57;99220.00;;;15.60
19948;BMP180;10135;50.702;7.276;2022-09-17T05:59:58;99223.00;;;15.60
19948;BMP180;10135;50.702;7.276;2022-09-17T06:01:59;99227.00;;;15.60
19948;BMP180;10135;50.702;7.276;2022-09-17T06:04:00;99219.00;;;15.60
19948;BMP180;10135;50.702;7.276;2022-09-17T06:06:04;99221.00;;;15.60
19948;BMP180;10135;50.702;7.276;2022-09-17T06:08:04;99232.00;;;15.60
19948;BMP180;10135;50.702;7.276;2022-09-17T06:10:06;99237.00;;;15.60
19948;BMP180;10135;50.702;7.276;2022-09-17T06:12:07;99234.00;;;15.70
19948;BMP180;10135;50.702;7.276;2022-09-17T06:14:08;99238.00;;;15.70
19948;BMP180;10135;50.702;7.276;2022-09-17T06:16:09;99241.00;;;15.70
19948;BMP180;10135;50.702;7.276;2022-09-17T06:18:10;99248.00;;;15.70
19948;BMP180;10135;50.702;7.276;2022-09-17T06:20:10;99249.00;;;15.70
19948;BMP180;10135;50.702;7.276;2022-09-17T06:22:11;99240.00;;;15.70
19948;BMP180;10135;50.702;7.276;2022-09-17T06:24:12;99242.00;;;15.70
19948;BMP180;10135;50.702;7.276;2022-09-17T06:26:12;99242.00;;;15.70
19948;BMP180;10135;50.702;7.276;2022-09-17T06:28:13;99248.00;;;15.70
19948;BMP180;10135;50.702;7.276;2022-09-17T06:30:14;99257.00;;;15.80
19948;BMP180;10135;50.702;7.276;2022-09-17T06:32:14;99247.00;;;15.80
19948;BMP180;10135;50.702;7.276;2022-09-17T06:34:16;99253.00;;;15.80
19948;BMP180;10135;50.702;7.276;2022-09-17T06:36:17;99254.00;;;15.90
19948;BMP180;10135;50.702;7.276;2022-09-17T06:38:18;99249.00;;;15.90
19948;BMP180;10135;50.702;7.276;2022-09-17T06:40:18;99257.00;;;15.90
19948;BMP180;10135;50.702;7.276;2022-09-17T06:42:19;99250.00;;;16.00
19948;BMP180;10135;50.702;7.276;2022-09-17T06:44:19;99262.00;;;16.00
19948;BMP180;10135;50.702;7.276;2022-09-17T06:46:20;99255.00;;;16.00
19948;BMP180;10135;50.702;7.276;2022-09-17T06:48:22;99246.00;;;16.00
19948;BMP180;10135;50.702;7.276;2022-09-17T06:50:23;99259.00;;;16.00
19948;BMP180;10135;50.702;7.276;2022-09-17T06:52:24;99254.00;;;16.10
19948;BMP180;10135;50.702;7.276;2022-09-17T06:54:25;99252.00;;;16.10
19948;BMP180;10135;50.702;7.276;2022-09-17T06:56:26;99257.00;;;16.10
19948;BMP180;10135;50.702;7.276;2022-09-17T06:58:28;99256.00;;;16.10
19948;BMP180;10135;50.702;7.276;2022-09-17T07:00:29;99259.00;;;16.10
19948;BMP180;10135;50.702;7.276;2022-09-17T07:02:30;99253.00;;;16.20
19948;BMP180;10135;50.702;7.276;2022-09-17T07:04:31;99253.00;;;16.20
19948;BMP180;10135;50.702;7.276;2022-09-17T07:06:31;99247.00;;;16.20
19948;BMP180;10135;50.702;7.276;2022-09-17T07:08:32;99253.00;;;16.30
19948;BMP180;10135;50.702;7.276;2022-09-17T07:10:33;99246.00;;;16.30
19948;BMP180;10135;50.702;7.276;2022-09-17T07:12:39;99253.00;;;16.30
19948;BMP180;10135;50.702;7.276;2022-09-17T07:14:41;99249.00;;;16.40
19948;BMP180;10135;50.702;7.276;2022-09-17T07:16:41;99252.00;;;16.40
19948;BMP180;10135;50.702;7.276;2022-09-17T07:18:42;99246.00;;;16.50
19948;BMP180;10135;50.702;7.276;2022-09-17T07:20:43;99246.00;;;16.50
19948;BMP180;10135;50.702;7.276;2022-09-17T07:22:44;99250.00;;;16.50
19948;BMP180;10135;50.702;7.276;2022-09-17T07:24:44;99248.00;;;16.50
19948;BMP180;10135;50.702;7.276;2022-09-17T07:26:45;99251.00;;;16.50
19948;BMP180;10135;50.702;7.276;2022-09-17T07:28:46;99251.00;;;16.50
19948;BMP180;10135;50.702;7.276;2022-09-17T07:30:47;99253.00;;;16.60
19948;BMP180;10135;50.702;7.276;2022-09-17T07:32:48;99248.00;;;16.60
19948;BMP180;10135;50.702;7.276;2022-09-17T07:34:49;99258.00;;;16.60
19948;BMP180;10135;50.702;7.276;2022-09-17T07:36:49;99258.00;;;16.60
19948;BMP180;10135;50.702;7.276;2022-09-17T07:38:50;99267.00;;;16.60
19948;BMP180;10135;50.702;7.276;2022-09-17T07:41:17;99271.00;;;16.50
19948;BMP180;10135;50.702;7.276;2022-09-17T07:43:17;99269.00;;;16.60
19948;BMP180;10135;50.702;7.276;2022-09-17T07:45:18;99273.00;;;16.60
19948;BMP180;10135;50.702;7.276;2022-09-17T07:47:19;99270.00;;;16.60
19948;BMP180;10135;50.702;7.276;2022-09-17T07:49:19;99276.00;;;16.60
19948;BMP180;10135;50.702;7.276;2022-09-17T07:51:25;99276.00;;;16.50
19948;BMP180;10135;50.702;7.276;2022-09-17T07:53:27;99274.00;;;16.50
19948;BMP180;10135;50.702;7.276;2022-09-17T07:55:28;99278.00;;;16.60
19948;BMP180;10135;50.702;7.276;2022-09-17T07:57:29;99279.00;;;16.50
19948;BMP180;10135;50.702;7.276;2022-09-17T07:59:30;99271.00;;;16.60
19948;BMP180;10135;50.702;7.276;2022-09-17T08:01:32;99277.00;;;16.50
19948;BMP180;10135;50.702;7.276;2022-09-17T08:03:34;99278.00;;;16.50
19948;BMP180;10135;50.702;7.276;2022-09-17T08:05:35;99280.00;;;16.50
19948;BMP180;10135;50.702;7.276;2022-09-17T08:07:36;99275.00;;;16.50
19948;BMP180;10135;50.702;7.276;2022-09-17T08:09:36;99277.00;;;16.50
19948;BMP180;10135;50.702;7.276;2022-09-17T08:11:37;99280.00;;;16.50
19948;BMP180;10135;50.702;7.276;2022-09-17T08:13:38;99276.00;;;16.50
19948;BMP180;10135;50.702;7.276;2022-09-17T08:15:39;99276.00;;;16.50
19948;BMP180;10135;50.702;7.276;2022-09-17T08:17:44;99282.00;;;16.50
19948;BMP180;10135;50.702;7.276;2022-09-17T08:19:45;99275.00;;;16.60
19948;BMP180;10135;50.702;7.276;2022-09-17T08:21:46;99269.00;;;16.60
19948;BMP180;10135;50.702;7.276;2022-09-17T08:23:47;99267.00;;;16.60
19948;BMP180;10135;50.702;7.276;2022-09-17T08:25:55;99278.00;;;16.60
19948;BMP180;10135;50.702;7.276;2022-09-17T08:27:56;99272.00;;;16.70
19948;BMP180;10135;50.702;7.276;2022-09-17T08:29:57;99267.00;;;16.70
19948;BMP180;10135;50.702;7.276;2022-09-17T08:31:58;99276.00;;;16.70
19948;BMP180;10135;50.702;7.276;2022-09-17T08:33:59;99282.00;;;16.70
19948;BMP180;10135;50.702;7.276;2022-09-17T08:35:59;99282.00;;;16.80
19948;BMP180;10135;50.702;7.276;2022-09-17T08:38:00;99275.00;;;16.80
19948;BMP180;10135;50.702;7.276;2022-09-17T08:40:01;99274.00;;;16.80
19948;BMP180;10135;50.702;7.276;2022-09-17T08:42:19;99269.00;;;16.80
19948;BMP180;10135;50.702;7.276;2022-09-17T08:44:39;99283.00;;;16.80
19948;BMP180;10135;50.702;7.276;2022-09-17T08:46:45;99273.00;;;16.80
19948;BMP180;10135;50.702;7.276;2022-09-17T08:54:32;99269.00;;;16.90
19948;BMP180;10135;50.702;7.276;2022-09-17T08:56:36;99272.00;;;16.90
19948;BMP180;10135;50.702;7.276;2022-09-17T08:58:58;99279.00;;;16.90
19948;BMP180;10135;50.702;7.276;2022-09-17T09:05:46;99278.00;;;17.00
19948;BMP180;10135;50.702;7.276;2022-09-17T09:07:55;99269.00;;;17.00
19948;BMP180;10135;50.702;7.276;2022-09-17T09:12:25;99268.00;;;17.10
19948;BMP180;10135;50.702;7.276;2022-09-17T09:15:07;99270.00;;;17.10
19948;BMP180;10135;50.702;7.276;2022-09-17T09:17:20;99267.00;;;17.20
19948;BMP180;10135;50.702;7.276;2022-09-17T09:19:31;99273.00;;;17.20
19948;BMP180;10135;50.702;7.276;2022-09-17T09:22:00;99267.00;;;17.20
19948;BMP180;10135;50.702;7.276;2022-09-17T09:24:23;99265.00;;;17.30
19948;BMP180;10135;50.702;7.276;2022-09-17T09:26:46;99274.00;;;17.30
19948;BMP180;10135;50.702;7.276;2022-09-17T09:33:40;99268.00;;;17.50
19948;BMP180;10135;50.702;7.276;2022-09-17T09:35:43;99277.00;;;17.50
19948;BMP180;10135;50.702;7.276;2022-09-17T09:37:54;99271.00;;;17.50
19948;BMP180;10135;50.702;7.276;2022-09-17T09:42:35;99275.00;;;17.70
19948;BMP180;10135;50.702;7.276;2022-09-17T09:44:38;99273.00;;;17.70
19948;BMP180;10135;50.702;7.276;2022-09-17T09:49:49;99272.00;;;17.70
19948;BMP180;10135;50.702;7.276;2022-09-17T09:52:08;99273.00;;;17.80
19948;BMP180;10135;50.702;7.276;2022-09-17T09:57:01;99273.00;;;17.80
19948;BMP180;10135;50.702;7.276;2022-09-17T09:59:11;99268.00;;;17.80
19948;BMP180;10135;50.702;7.276;2022-09-17T10:01:16;99273.00;;;17.80
19948;BMP180;10135;50.702;7.276;2022-09-17T10:03:29;99268.00;;;17.80
19948;BMP180;10135;50.702;7.276;2022-09-17T10:05:31;99265.00;;;17.80
19948;BMP180;10135;50.702;7.276;2022-09-17T10:07:42;99266.00;;;17.80
19948;BMP180;10135;50.702;7.276;2022-09-17T10:09:45;99273.00;;;17.80
19948;BMP180;10135;50.702;7.276;2022-09-17T10:12:18;99269.00;;;17.80
19948;BMP180;10135;50.702;7.276;2022-09-17T10:14:25;99258.00;;;17.80
19948;BMP180;10135;50.702;7.276;2022-09-17T10:16:26;99266.00;;;17.80
19948;BMP180;10135;50.702;7.276;2022-09-17T10:18:28;99266.00;;;17.80
19948;BMP180;10135;50.702;7.276;2022-09-17T10:20:29;99278.00;;;17.90
19948;BMP180;10135;50.702;7.276;2022-09-17T10:22:40;99271.00;;;17.80
19948;BMP180;10135;50.702;7.276;2022-09-17T10:24:42;99267.00;;;17.80
19948;BMP180;10135;50.702;7.276;2022-09-17T10:26:43;99257.00;;;17.80
19948;BMP180;10135;50.702;7.276;2022-09-17T10:28:52;99263.00;;;17.80
19948;BMP180;10135;50.702;7.276;2022-09-17T10:31:06;99260.00;;;17.80
19948;BMP180;10135;50.702;7.276;2022-09-17T10:33:22;99265.00;;;17.80
19948;BMP180;10135;50.702;7.276;2022-09-17T10:35:26;99268.00;;;17.80
19948;BMP180;10135;50.702;7.276;2022-09-17T10:39:44;99269.00;;;17.80
19948;BMP180;10135;50.702;7.276;2022-09-17T10:41:56;99269.00;;;17.80
19948;BMP180;10135;50.702;7.276;2022-09-17T10:44:16;99265.00;;;17.90
19948;BMP180;10135;50.702;7.276;2022-09-17T10:46:28;99254.00;;;17.90
19948;BMP180;10135;50.702;7.276;2022-09-17T10:48:35;99250.00;;;18.00
19948;BMP180;10135;50.702;7.276;2022-09-17T10:50:37;99252.00;;;18.10
19948;BMP180;10135;50.702;7.276;2022-09-17T10:52:40;99250.00;;;18.10
19948;BMP180;10135;50.702;7.276;2022-09-17T10:57:21;99250.00;;;18.20
19948;BMP180;10135;50.702;7.276;2022-09-17T10:59:35;99247.00;;;18.20
19948;BMP180;10135;50.702;7.276;2022-09-17T11:07:54;99235.00;;;18.30
19948;BMP180;10135;50.702;7.276;2022-09-17T11:10:29;99231.00;;;18.40
19948;BMP180;10135;50.702;7.276;2022-09-17T11:25:39;99236.00;;;19.00
19948;BMP180;10135;50.702;7.276;2022-09-17T11:27:47;99228.00;;;19.10
19948;BMP180;10135;50.702;7.276;2022-09-17T11:32:40;99230.00;;;19.20
19948;BMP180;10135;50.702;7.276;2022-09-17T11:35:03;99231.00;;;19.30
19948;BMP180;10135;50.702;7.276;2022-09-17T11:37:12;99239.00;;;19.40
19948;BMP180;10135;50.702;7.276;2022-09-17T11:39:30;99227.00;;;19.40
19948;BMP180;10135;50.702;7.276;2022-09-17T11:41:41;99233.00;;;19.50
19948;BMP180;10135;50.702;7.276;2022-09-17T11:44:26;99232.00;;;19.50
19948;BMP180;10135;50.702;7.276;2022-09-17T11:46:36;99231.00;;;19.50
19948;BMP180;10135;50.702;7.276;2022-09-17T11:49:00;99226.00;;;19.50
19948;BMP180;10135;50.702;7.276;2022-09-17T11:51:23;99215.00;;;19.40
19948;BMP180;10135;50.702;7.276;2022-09-17T11:53:46;99222.00;;;19.50
19948;BMP180;10135;50.702;7.276;2022-09-17T11:55:55;99224.00;;;19.50
19948;BMP180;10135;50.702;7.276;2022-09-17T11:58:11;99219.00;;;19.50
19948;BMP180;10135;50.702;7.276;2022-09-17T12:00:20;99221.00;;;19.50
19948;BMP180;10135;50.702;7.276;2022-09-17T12:02:53;99216.00;;;19.50
19948;BMP180;10135;50.702;7.276;2022-09-17T12:05:03;99215.00;;;19.60
19948;BMP180;10135;50.702;7.276;2022-09-17T12:07:24;99207.00;;;19.60
19948;BMP180;10135;50.702;7.276;2022-09-17T12:09:31;99211.00;;;19.70
19948;BMP180;10135;50.702;7.276;2022-09-17T12:11:49;99207.00;;;19.70
19948;BMP180;10135;50.702;7.276;2022-09-17T12:14:01;99197.00;;;19.70
19948;BMP180;10135;50.702;7.276;2022-09-17T12:16:25;99200.00;;;19.70
19948;BMP180;10135;50.702;7.276;2022-09-17T12:20:39;99211.00;;;19.70
19948;BMP180;10135;50.702;7.276;2022-09-17T12:22:44;99207.00;;;19.70
19948;BMP180;10135;50.702;7.276;2022-09-17T12:24:49;99218.00;;;19.70
19948;BMP180;10135;50.702;7.276;2022-09-17T12:42:00;99268.00;;;18.50
19948;BMP180;10135;50.702;7.276;2022-09-17T12:44:48;99264.00;;;18.40
19948;BMP180;10135;50.702;7.276;2022-09-17T12:49:54;99250.00;;;18.30
19948;BMP180;10135;50.702;7.276;2022-09-17T12:52:08;99253.00;;;18.30
19948;BMP180;10135;50.702;7.276;2022-09-17T12:56:57;99243.00;;;18.20
19948;BMP180;10135;50.702;7.276;2022-09-17T12:59:18;99236.00;;;18.20
19948;BMP180;10135;50.702;7.276;2022-09-17T13:15:17;99230.00;;;18.30
19948;BMP180;10135;50.702;7.276;2022-09-17T13:17:46;99231.00;;;18.30
19948;BMP180;10135;50.702;7.276;2022-09-17T13:20:25;99235.00;;;18.30
19948;BMP180;10135;50.702;7.276;2022-09-17T13:22:30;99224.00;;;18.30
19948;BMP180;10135;50.702;7.276;2022-09-17T13:24:34;99232.00;;;18.30
19948;BMP180;10135;50.702;7.276;2022-09-17T13:26:36;99237.00;;;18.30
19948;BMP180;10135;50.702;7.276;2022-09-17T13:28:46;99231.00;;;18.30
19948;BMP180;10135;50.702;7.276;2022-09-17T13:30:59;99227.00;;;18.30
19948;BMP180;10135;50.702;7.276;2022-09-17T13:33:01;99218.00;;;18.30
19948;BMP180;10135;50.702;7.276;2022-09-17T13:37:21;99202.00;;;18.30
19948;BMP180;10135;50.702;7.276;2022-09-17T13:39:47;99198.00;;;18.40
19948;BMP180;10135;50.702;7.276;2022-09-17T13:44:04;99187.00;;;18.50
19948;BMP180;10135;50.702;7.276;2022-09-17T13:46:08;99183.00;;;18.50
19948;BMP180;10135;50.702;7.276;2022-09-17T13:48:20;99195.00;;;18.50
19948;BMP180;10135;50.702;7.276;2022-09-17T13:50:43;99181.00;;;18.60
19948;BMP180;10135;50.702;7.276;2022-09-17T13:52:48;99199.00;;;18.60
19948;BMP180;10135;50.702;7.276;2022-09-17T13:54:49;99211.00;;;18.60
19948;BMP180;10135;50.702;7.276;2022-09-17T13:57:06;99254.00;;;18.60
19948;BMP180;10135;50.702;7.276;2022-09-17T13:59:14;99268.00;;;18.50
19948;BMP180;10135;50.702;7.276;2022-09-17T14:06:48;99310.00;;;17.90
19948;BMP180;10135;50.702;7.276;2022-09-17T14:08:53;99320.00;;;17.80
19948;BMP180;10135;50.702;7.276;2022-09-17T14:10:58;99310.00;;;17.60
19948;BMP180;10135;50.702;7.276;2022-09-17T14:15:53;99288.00;;;17.20
19948;BMP180;10135;50.702;7.276;2022-09-17T14:17:55;99278.00;;;17.00
19948;BMP180;10135;50.702;7.276;2022-09-17T14:19:56;99274.00;;;16.90
19948;BMP180;10135;50.702;7.276;2022-09-17T14:24:21;99275.00;;;16.60
19948;BMP180;10135;50.702;7.276;2022-09-17T14:29:19;99269.00;;;16.50
19948;BMP180;10135;50.702;7.276;2022-09-17T14:31:30;99251.00;;;16.50
19948;BMP180;10135;50.702;7.276;2022-09-17T14:33:33;99260.00;;;16.50
19948;BMP180;10135;50.702;7.276;2022-09-17T14:35:43;99255.00;;;16.40
19948;BMP180;10135;50.702;7.276;2022-09-17T14:37:59;99268.00;;;16.40
19948;BMP180;10135;50.702;7.276;2022-09-17T14:40:09;99255.00;;;16.40
19948;BMP180;10135;50.702;7.276;2022-09-17T14:42:18;99251.00;;;16.40
19948;BMP180;10135;50.702;7.276;2022-09-17T14:44:26;99251.00;;;16.40
19948;BMP180;10135;50.702;7.276;2022-09-17T14:46:48;99247.00;;;16.40
19948;BMP180;10135;50.702;7.276;2022-09-17T14:48:51;99247.00;;;16.50
19948;BMP180;10135;50.702;7.276;2022-09-17T14:51:21;99247.00;;;16.50
19948;BMP180;10135;50.702;7.276;2022-09-17T14:53:22;99239.00;;;16.50
19948;BMP180;10135;50.702;7.276;2022-09-17T14:55:30;99240.00;;;16.50
19948;BMP180;10135;50.702;7.276;2022-09-17T14:57:31;99234.00;;;16.60
19948;BMP180;10135;50.702;7.276;2022-09-17T14:59:57;99233.00;;;16.60
19948;BMP180;10135;50.702;7.276;2022-09-17T15:01:59;99232.00;;;16.70
19948;BMP180;10135;50.702;7.276;2022-09-17T15:06:22;99233.00;;;16.80
19948;BMP180;10135;50.702;7.276;2022-09-17T15:08:27;99230.00;;;16.80
19948;BMP180;10135;50.702;7.276;2022-09-17T15:10:29;99222.00;;;16.80
19948;BMP180;10135;50.702;7.276;2022-09-17T15:12:30;99224.00;;;16.80
19948;BMP180;10135;50.702;7.276;2022-09-17T15:14:37;99226.00;;;16.80
19948;BMP180;10135;50.702;7.276;2022-09-17T15:16:55;99224.00;;;16.80
19948;BMP180;10135;50.702;7.276;2022-09-17T15:18:59;99233.00;;;16.90
19948;BMP180;10135;50.702;7.276;2022-09-17T15:21:05;99276.00;;;16.90
19948;BMP180;10135;50.702;7.276;2022-09-17T15:23:24;99292.00;;;16.80
19948;BMP180;10135;50.702;7.276;2022-09-17T15:25:29;99277.00;;;16.80
19948;BMP180;10135;50.702;7.276;2022-09-17T15:27:37;99258.00;;;16.70
19948;BMP180;10135;50.702;7.276;2022-09-17T15:29:44;99256.00;;;16.70
19948;BMP180;10135;50.702;7.276;2022-09-17T15:31:46;99261.00;;;16.60
19948;BMP180;10135;50.702;7.276;2022-09-17T15:33:47;99260.00;;;16.60
19948;BMP180;10135;50.702;7.276;2022-09-17T15:36:24;99266.00;;;16.60
19948;BMP180;10135;50.702;7.276;2022-09-17T15:38:29;99260.00;;;16.60
19948;BMP180;10135;50.702;7.276;2022-09-17T15:40:39;99279.00;;;16.50
19948;BMP180;10135;50.702;7.276;2022-09-17T15:42:50;99280.00;;;16.50
19948;BMP180;10135;50.702;7.276;2022-09-17T15:44:52;99277.00;;;16.50
19948;BMP180;10135;50.702;7.276;2022-09-17T15:46:53;99277.00;;;16.50
19948;BMP180;10135;50.702;7.276;2022-09-17T15:49:03;99275.00;;;16.40
19948;BMP180;10135;50.702;7.276;2022-09-17T15:51:20;99267.00;;;16.40
19948;BMP180;10135;50.702;7.276;2022-09-17T15:53:28;99280.00;;;16.40
19948;BMP180;10135;50.702;7.276;2022-09-17T15:55:44;99274.00;;;16.30
19948;BMP180;10135;50.702;7.276;2022-09-17T15:57:45;99279.00;;;16.40
19948;BMP180;10135;50.702;7.276;2022-09-17T15:59:45;99284.00;;;16.40
19948;BMP180;10135;50.702;7.276;2022-09-17T16:04:18;99286.00;;;16.30
19948;BMP180;10135;50.702;7.276;2022-09-17T16:08:23;99272.00;;;16.40
19948;BMP180;10135;50.702;7.276;2022-09-17T16:10:33;99259.00;;;16.40
19948;BMP180;10135;50.702;7.276;2022-09-17T16:12:33;99255.00;;;16.40
19948;BMP180;10135;50.702;7.276;2022-09-17T16:14:34;99274.00;;;16.40
19948;BMP180;10135;50.702;7.276;2022-09-17T16:16:36;99267.00;;;16.40
19948;BMP180;10135;50.702;7.276;2022-09-17T16:18:37;99275.00;;;16.40
19948;BMP180;10135;50.702;7.276;2022-09-17T16:20:38;99275.00;;;16.40
19948;BMP180;10135;50.702;7.276;2022-09-17T16:22:38;99291.00;;;16.40
19948;BMP180;10135;50.702;7.276;2022-09-17T16:24:39;99290.00;;;16.50
19948;BMP180;10135;50.702;7.276;2022-09-17T16:26:40;99288.00;;;16.50
19948;BMP180;10135;50.702;7.276;2022-09-17T16:28:42;99279.00;;;16.50
19948;BMP180;10135;50.702;7.276;2022-09-17T16:30:47;99287.00;;;16.50
19948;BMP180;10135;50.702;7.276;2022-09-17T16:32:49;99286.00;;;16.50
19948;BMP180;10135;50.702;7.276;2022-09-17T16:34:50;99290.00;;;16.50
19948;BMP180;10135;50.702;7.276;2022-09-17T16:36:50;99287.00;;;16.50
19948;BMP180;10135;50.702;7.276;2022-09-17T16:38:51;99285.00;;;16.50
19948;BMP180;10135;50.702;7.276;2022-09-17T16:40:52;99284.00;;;16.50
19948;BMP180;10135;50.702;7.276;2022-09-17T16:42:52;99283.00;;;16.50
19948;BMP180;10135;50.702;7.276;2022-09-17T16:44:53;99275.00;;;16.50
19948;BMP180;10135;50.702;7.276;2022-09-17T16:46:54;99267.00;;;16.50
19948;BMP180;10135;50.702;7.276;2022-09-17T16:48:54;99278.00;;;16.50
19948;BMP180;10135;50.702;7.276;2022-09-17T16:50:55;99280.00;;;16.50
19948;BMP180;10135;50.702;7.276;2022-09-17T16:52:56;99275.00;;;16.50
19948;BMP180;10135;50.702;7.276;2022-09-17T16:54:56;99275.00;;;16.50
19948;BMP180;10135;50.702;7.276;2022-09-17T16:56:57;99269.00;;;16.50
19948;BMP180;10135;50.702;7.276;2022-09-17T16:58:58;99268.00;;;16.50
19948;BMP180;10135;50.702;7.276;2022-09-17T17:01:05;99271.00;;;16.50
19948;BMP180;10135;50.702;7.276;2022-09-17T17:03:06;99269.00;;;16.50
19948;BMP180;10135;50.702;7.276;2022-09-17T17:05:07;99278.00;;;16.50
19948;BMP180;10135;50.702;7.276;2022-09-17T17:07:08;99278.00;;;16.50
19948;BMP180;10135;50.702;7.276;2022-09-17T17:09:08;99285.00;;;16.50
19948;BMP180;10135;50.702;7.276;2022-09-17T17:11:11;99282.00;;;16.50
19948;BMP180;10135;50.702;7.276;2022-09-17T17:13:12;99274.00;;;16.50
19948;BMP180;10135;50.702;7.276;2022-09-17T17:15:13;99279.00;;;16.40
19948;BMP180;10135;50.702;7.276;2022-09-17T17:17:13;99287.00;;;16.40
19948;BMP180;10135;50.702;7.276;2022-09-17T17:19:14;99283.00;;;16.40
19948;BMP180;10135;50.702;7.276;2022-09-17T17:21:15;99281.00;;;16.40
19948;BMP180;10135;50.702;7.276;2022-09-17T17:23:16;99280.00;;;16.40
19948;BMP180;10135;50.702;7.276;2022-09-17T17:25:17;99282.00;;;16.40
19948;BMP180;10135;50.702;7.276;2022-09-17T17:27:17;99289.00;;;16.40
19948;BMP180;10135;50.702;7.276;2022-09-17T17:29:18;99280.00;;;16.40
19948;BMP180;10135;50.702;7.276;2022-09-17T17:31:19;99292.00;;;16.30
19948;BMP180;10135;50.702;7.276;2022-09-17T17:33:19;99288.00;;;16.30
19948;BMP180;10135;50.702;7.276;2022-09-17T17:35:20;99287.00;;;16.30
19948;BMP180;10135;50.702;7.276;2022-09-17T17:37:21;99294.00;;;16.30
19948;BMP180;10135;50.702;7.276;2022-09-17T17:39:22;99289.00;;;16.30
19948;BMP180;10135;50.702;7.276;2022-09-17T17:41:23;99295.00;;;16.30
19948;BMP180;10135;50.702;7.276;2022-09-17T17:43:25;99296.00;;;16.30
19948;BMP180;10135;50.702;7.276;2022-09-17T17:45:27;99294.00;;;16.30
19948;BMP180;10135;50.702;7.276;2022-09-17T17:47:27;99304.00;;;16.30
19948;BMP180;10135;50.702;7.276;2022-09-17T17:49:28;99297.00;;;16.20
19948;BMP180;10135;50.702;7.276;2022-09-17T17:51:28;99294.00;;;16.20
19948;BMP180;10135;50.702;7.276;2022-09-17T17:53:29;99307.00;;;16.20
19948;BMP180;10135;50.702;7.276;2022-09-17T17:55:31;99297.00;;;16.20
19948;BMP180;10135;50.702;7.276;2022-09-17T17:57:31;99306.00;;;16.20
19948;BMP180;10135;50.702;7.276;2022-09-17T17:59:32;99311.00;;;16.20
19948;BMP180;10135;50.702;7.276;2022-09-17T18:01:33;99309.00;;;16.20
19948;BMP180;10135;50.702;7.276;2022-09-17T18:03:34;99310.00;;;16.20
19948;BMP180;10135;50.702;7.276;2022-09-17T18:05:39;99309.00;;;16.10
19948;BMP180;10135;50.702;7.276;2022-09-17T18:07:39;99314.00;;;16.10
19948;BMP180;10135;50.702;7.276;2022-09-17T18:09:40;99315.00;;;16.10
19948;BMP180;10135;50.702;7.276;2022-09-17T18:11:40;99323.00;;;16.10
19948;BMP180;10135;50.702;7.276;2022-09-17T18:13:41;99319.00;;;16.10
19948;BMP180;10135;50.702;7.276;2022-09-17T18:15:57;99328.00;;;16.10
19948;BMP180;10135;50.702;7.276;2022-09-17T18:17:58;99326.00;;;16.10
19948;BMP180;10135;50.702;7.276;2022-09-17T18:19:59;99329.00;;;16.10
19948;BMP180;10135;50.702;7.276;2022-09-17T18:22:00;99333.00;;;16.10
19948;BMP180;10135;50.702;7.276;2022-09-17T18:24:00;99324.00;;;16.10
19948;BMP180;10135;50.702;7.276;2022-09-17T18:26:02;99333.00;;;16.10
19948;BMP180;10135;50.702;7.276;2022-09-17T18:28:04;99333.00;;;16.10
19948;BMP180;10135;50.702;7.276;2022-09-17T18:30:05;99331.00;;;16.10
19948;BMP180;10135;50.702;7.276;2022-09-17T18:32:06;99332.00;;;16.10
19948;BMP180;10135;50.702;7.276;2022-09-17T18:34:15;99332.00;;;16.00
19948;BMP180;10135;50.702;7.276;2022-09-17T18:36:15;99332.00;;;16.10
19948;BMP180;10135;50.702;7.276;2022-09-17T18:38:16;99331.00;;;16.10
19948;BMP180;10135;50.702;7.276;2022-09-17T18:40:17;99336.00;;;16.10
19948;BMP180;10135;50.702;7.276;2022-09-17T18:42:18;99349.00;;;16.10
19948;BMP180;10135;50.702;7.276;2022-09-17T18:44:19;99343.00;;;16.10
19948;BMP180;10135;50.702;7.276;2022-09-17T18:46:21;99348.00;;;16.10
19948;BMP180;10135;50.702;7.276;2022-09-17T18:48:23;99349.00;;;16.10
19948;BMP180;10135;50.702;7.276;2022-09-17T18:50:24;99354.00;;;16.10
19948;BMP180;10135;50.702;7.276;2022-09-17T18:52:24;99364.00;;;16.10
19948;BMP180;10135;50.702;7.276;2022-09-17T18:54:25;99363.00;;;16.10
19948;BMP180;10135;50.702;7.276;2022-09-17T18:56:30;99362.00;;;16.10
19948;BMP180;10135;50.702;7.276;2022-09-17T18:58:33;99363.00;;;16.10
19948;BMP180;10135;50.702;7.276;2022-09-17T19:00:34;99364.00;;;16.10
19948;BMP180;10135;50.702;7.276;2022-09-17T19:02:34;99359.00;;;16.10
19948;BMP180;10135;50.702;7.276;2022-09-17T19:04:35;99366.00;;;16.10
19948;BMP180;10135;50.702;7.276;2022-09-17T19:06:36;99361.00;;;16.10
19948;BMP180;10135;50.702;7.276;2022-09-17T19:08:37;99367.00;;;16.10
19948;BMP180;10135;50.702;7.276;2022-09-17T19:10:38;99363.00;;;16.10
19948;BMP180;10135;50.702;7.276;2022-09-17T19:12:39;99368.00;;;16.10
19948;BMP180;10135;50.702;7.276;2022-09-17T19:14:41;99370.00;;;16.10
19948;BMP180;10135;50.702;7.276;2022-09-17T19:16:42;99368.00;;;16.10
19948;BMP180;10135;50.702;7.276;2022-09-17T19:18:43;99362.00;;;16.10
19948;BMP180;10135;50.702;7.276;2022-09-17T19:20:43;99356.00;;;16.10
19948;BMP180;10135;50.702;7.276;2022-09-17T19:22:45;99357.00;;;16.10
19948;BMP180;10135;50.702;7.276;2022-09-17T19:24:45;99354.00;;;16.10
19948;BMP180;10135;50.702;7.276;2022-09-17T19:26:46;99362.00;;;16.10
19948;BMP180;10135;50.702;7.276;2022-09-17T19:28:50;99367.00;;;16.10